sensor_id;sensor_type;location;lat;lon;timestamp;P1;durP1;ratioP1;P2;durP2;ratioP2
72437;SDS011;60444;43.534;-5.674;2024-03-17T00:02:21;11.57;;;6.13;;
72437;SDS011;60444;43.534;-5.674;2024-03-17T00:04:46;15.35;;;7.68;;
72437;SDS011;60444;43.534;-5.674;2024-03-17T00:07:12;16.87;;;7.67;;
72437;SDS011;60444;43.534;-5.674;2024-03-17T00:09:38;15.10;;;8.43;;
72437;SDS011;60444;43.534;-5.674;2024-03-17T00:12:04;14.15;;;6.85;;
72437;SDS011;60444;43.534;-5.674;2024-03-17T00:14:31;17.20;;;7.27;;
72437;SDS011;60444;43.534;-5.674;2024-03-17T00:16:57;11.90;;;5.75;;
72437;SDS011;60444;43.534;-5.674;2024-03-17T00:19:26;16.17;;;7.28;;
72437;SDS011;60444;43.534;-5.674;2024-03-17T00:21:51;15.20;;;6.70;;
72437;SDS011;60444;43.534;-5.674;2024-03-17T00:24:18;14.50;;;7.13;;
72437;SDS011;60444;43.534;-5.674;2024-03-17T00:26:44;13.98;;;6.18;;
72437;SDS011;60444;43.534;-5.674;2024-03-17T00:29:11;12.55;;;5.13;;
72437;SDS011;60444;43.534;-5.674;2024-03-17T00:31:36;17.63;;;7.93;;
72437;SDS011;60444;43.534;-5.674;2024-03-17T00:34:02;14.87;;;7.20;;
72437;SDS011;60444;43.534;-5.674;2024-03-17T00:36:30;11.32;;;5.40;;
72437;SDS011;60444;43.534;-5.674;2024-03-17T00:38:56;10.32;;;5.35;;
72437;SDS011;60444;43.534;-5.674;2024-03-17T00:41:22;12.37;;;5.23;;
72437;SDS011;60444;43.534;-5.674;2024-03-17T00:43:48;13.47;;;5.97;;
72437;SDS011;60444;43.534;-5.674;2024-03-17T00:46:15;13.27;;;6.15;;
72437;SDS011;60444;43.534;-5.674;2024-03-17T00:48:40;10.43;;;5.03;;
72437;SDS011;60444;43.534;-5.674;2024-03-17T00:51:06;10.05;;;4.50;;
72437;SDS011;60444;43.534;-5.674;2024-03-17T00:53:32;10.77;;;5.23;;
72437;SDS011;60444;43.534;-5.674;2024-03-17T00:55:57;17.35;;;6.80;;
72437;SDS011;60444;43.534;-5.674;2024-03-17T00:58:23;12.30;;;6.30;;
72437;SDS011;60444;43.534;-5.674;2024-03-17T01:00:49;13.27;;;5.55;;
72437;SDS011;60444;43.534;-5.674;2024-03-17T01:03:18;12.13;;;5.05;;
72437;SDS011;60444;43.534;-5.674;2024-03-17T01:05:44;11.20;;;5.23;;
72437;SDS011;60444;43.534;-5.674;2024-03-17T01:08:12;13.82;;;6.88;;
72437;SDS011;60444;43.534;-5.674;2024-03-17T01:10:41;10.90;;;5.78;;
72437;SDS011;60444;43.534;-5.674;2024-03-17T01:13:07;11.52;;;5.07;;
72437;SDS011;60444;43.534;-5.674;2024-03-17T01:15:37;10.65;;;5.32;;
72437;SDS011;60444;43.534;-5.674;2024-03-17T01:18:06;15.70;;;7.13;;
72437;SDS011;60444;43.534;-5.674;2024-03-17T01:20:34;11.82;;;6.10;;
72437;SDS011;60444;43.534;-5.674;2024-03-17T01:23:00;9.93;;;4.97;;
72437;SDS011;60444;43.534;-5.674;2024-03-17T01:25:26;9.18;;;4.70;;
72437;SDS011;60444;43.534;-5.674;2024-03-17T01:27:53;10.90;;;6.00;;
72437;SDS011;60444;43.534;-5.674;2024-03-17T01:30:18;11.07;;;5.10;;
72437;SDS011;60444;43.534;-5.674;2024-03-17T01:32:44;10.07;;;5.18;;
72437;SDS011;60444;43.534;-5.674;2024-03-17T01:35:11;13.13;;;5.27;;
72437;SDS011;60444;43.534;-5.674;2024-03-17T01:37:37;14.23;;;6.50;;
72437;SDS011;60444;43.534;-5.674;2024-03-17T01:40:03;16.88;;;7.72;;
72437;SDS011;60444;43.534;-5.674;2024-03-17T01:42:38;10.82;;;5.97;;
72437;SDS011;60444;43.534;-5.674;2024-03-17T01:47:42;10.27;;;5.03;;
72437;SDS011;60444;43.534;-5.674;2024-03-17T01:50:08;16.25;;;7.18;;
72437;SDS011;60444;43.534;-5.674;2024-03-17T01:52:36;11.48;;;5.50;;
72437;SDS011;60444;43.534;-5.674;2024-03-17T01:55:02;17.52;;;7.40;;
72437;SDS011;60444;43.534;-5.674;2024-03-17T01:57:28;11.67;;;6.03;;
72437;SDS011;60444;43.534;-5.674;2024-03-17T01:59:55;12.65;;;5.90;;
72437;SDS011;60444;43.534;-5.674;2024-03-17T02:02:21;12.93;;;6.28;;
72437;SDS011;60444;43.534;-5.674;2024-03-17T02:04:47;11.17;;;5.20;;
72437;SDS011;60444;43.534;-5.674;2024-03-17T02:07:16;10.75;;;5.15;;
72437;SDS011;60444;43.534;-5.674;2024-03-17T02:09:41;10.95;;;4.95;;
72437;SDS011;60444;43.534;-5.674;2024-03-17T02:12:14;9.27;;;4.87;;
72437;SDS011;60444;43.534;-5.674;2024-03-17T02:14:39;10.32;;;4.60;;
72437;SDS011;60444;43.534;-5.674;2024-03-17T02:17:05;8.88;;;3.92;;
72437;SDS011;60444;43.534;-5.674;2024-03-17T02:19:30;9.53;;;3.77;;
72437;SDS011;60444;43.534;-5.674;2024-03-17T02:21:56;12.03;;;4.90;;
72437;SDS011;60444;43.534;-5.674;2024-03-17T02:24:22;7.32;;;2.90;;
72437;SDS011;60444;43.534;-5.674;2024-03-17T02:26:48;8.00;;;4.10;;
72437;SDS011;60444;43.534;-5.674;2024-03-17T02:29:14;9.60;;;4.13;;
72437;SDS011;60444;43.534;-5.674;2024-03-17T02:31:40;9.07;;;4.15;;
72437;SDS011;60444;43.534;-5.674;2024-03-17T02:34:05;8.93;;;3.57;;
72437;SDS011;60444;43.534;-5.674;2024-03-17T02:36:31;12.07;;;3.57;;
72437;SDS011;60444;43.534;-5.674;2024-03-17T02:38:57;11.02;;;4.32;;
72437;SDS011;60444;43.534;-5.674;2024-03-17T02:41:44;10.30;;;4.35;;
72437;SDS011;60444;43.534;-5.674;2024-03-17T02:44:12;12.13;;;4.63;;
72437;SDS011;60444;43.534;-5.674;2024-03-17T02:46:37;10.68;;;4.22;;
72437;SDS011;60444;43.534;-5.674;2024-03-17T02:49:03;12.00;;;5.43;;
72437;SDS011;60444;43.534;-5.674;2024-03-17T02:51:32;12.82;;;5.25;;
72437;SDS011;60444;43.534;-5.674;2024-03-17T02:53:59;11.30;;;5.63;;
72437;SDS011;60444;43.534;-5.674;2024-03-17T02:56:26;11.15;;;4.80;;
72437;SDS011;60444;43.534;-5.674;2024-03-17T02:58:51;12.65;;;5.15;;
72437;SDS011;60444;43.534;-5.674;2024-03-17T03:01:17;11.57;;;5.10;;
72437;SDS011;60444;43.534;-5.674;2024-03-17T03:03:44;12.57;;;5.43;;
72437;SDS011;60444;43.534;-5.674;2024-03-17T03:06:10;10.10;;;5.53;;
72437;SDS011;60444;43.534;-5.674;2024-03-17T03:08:37;11.38;;;4.80;;
72437;SDS011;60444;43.534;-5.674;2024-03-17T03:11:09;9.67;;;4.60;;
72437;SDS011;60444;43.534;-5.674;2024-03-17T03:13:46;11.10;;;3.78;;
72437;SDS011;60444;43.534;-5.674;2024-03-17T03:16:12;10.65;;;4.25;;
72437;SDS011;60444;43.534;-5.674;2024-03-17T03:18:43;12.23;;;3.45;;
72437;SDS011;60444;43.534;-5.674;2024-03-17T03:21:09;11.68;;;3.63;;
72437;SDS011;60444;43.534;-5.674;2024-03-17T03:23:36;9.47;;;3.53;;
72437;SDS011;60444;43.534;-5.674;2024-03-17T03:26:01;7.72;;;3.00;;
72437;SDS011;60444;43.534;-5.674;2024-03-17T03:28:29;11.57;;;3.33;;
72437;SDS011;60444;43.534;-5.674;2024-03-17T03:31:00;7.30;;;2.80;;
72437;SDS011;60444;43.534;-5.674;2024-03-17T03:33:32;10.88;;;3.00;;
72437;SDS011;60444;43.534;-5.674;2024-03-17T03:38:34;8.13;;;2.70;;
72437;SDS011;60444;43.534;-5.674;2024-03-17T03:41:05;9.33;;;3.00;;
72437;SDS011;60444;43.534;-5.674;2024-03-17T03:43:34;8.82;;;2.65;;
72437;SDS011;60444;43.534;-5.674;2024-03-17T03:46:01;10.68;;;2.70;;
72437;SDS011;60444;43.534;-5.674;2024-03-17T03:48:28;10.77;;;3.60;;
72437;SDS011;60444;43.534;-5.674;2024-03-17T03:50:53;12.17;;;3.60;;
72437;SDS011;60444;43.534;-5.674;2024-03-17T03:53:19;8.27;;;2.67;;
72437;SDS011;60444;43.534;-5.674;2024-03-17T03:55:45;9.50;;;2.50;;
72437;SDS011;60444;43.534;-5.674;2024-03-17T03:58:11;9.20;;;2.30;;
72437;SDS011;60444;43.534;-5.674;2024-03-17T04:00:38;9.48;;;2.30;;
72437;SDS011;60444;43.534;-5.674;2024-03-17T04:03:04;7.67;;;2.50;;
72437;SDS011;60444;43.534;-5.674;2024-03-17T04:05:30;7.80;;;2.10;;
72437;SDS011;60444;43.534;-5.674;2024-03-17T04:07:56;7.25;;;2.33;;
72437;SDS011;60444;43.534;-5.674;2024-03-17T04:10:23;7.70;;;2.05;;
72437;SDS011;60444;43.534;-5.674;2024-03-17T04:12:49;10.80;;;2.80;;
72437;SDS011;60444;43.534;-5.674;2024-03-17T04:15:16;7.55;;;2.08;;
72437;SDS011;60444;43.534;-5.674;2024-03-17T04:17:42;6.47;;;2.00;;
72437;SDS011;60444;43.534;-5.674;2024-03-17T04:20:08;7.57;;;2.13;;
72437;SDS011;60444;43.534;-5.674;2024-03-17T04:22:35;10.40;;;2.10;;
72437;SDS011;60444;43.534;-5.674;2024-03-17T04:25:02;7.97;;;2.30;;
72437;SDS011;60444;43.534;-5.674;2024-03-17T04:27:29;8.45;;;2.45;;
72437;SDS011;60444;43.534;-5.674;2024-03-17T04:29:56;9.43;;;2.80;;
72437;SDS011;60444;43.534;-5.674;2024-03-17T04:32:22;8.57;;;2.07;;
72437;SDS011;60444;43.534;-5.674;2024-03-17T04:34:48;8.15;;;2.83;;
72437;SDS011;60444;43.534;-5.674;2024-03-17T04:37:14;8.65;;;3.20;;
72437;SDS011;60444;43.534;-5.674;2024-03-17T04:39:40;10.80;;;3.50;;
72437;SDS011;60444;43.534;-5.674;2024-03-17T04:42:08;10.30;;;3.80;;
72437;SDS011;60444;43.534;-5.674;2024-03-17T04:44:34;11.93;;;4.13;;
72437;SDS011;60444;43.534;-5.674;2024-03-17T04:47:00;11.27;;;3.83;;
72437;SDS011;60444;43.534;-5.674;2024-03-17T04:49:26;10.57;;;3.20;;
72437;SDS011;60444;43.534;-5.674;2024-03-17T04:51:51;9.43;;;3.30;;
72437;SDS011;60444;43.534;-5.674;2024-03-17T04:54:17;10.80;;;4.43;;
72437;SDS011;60444;43.534;-5.674;2024-03-17T04:56:42;12.53;;;3.57;;
72437;SDS011;60444;43.534;-5.674;2024-03-17T04:59:08;10.60;;;3.97;;
72437;SDS011;60444;43.534;-5.674;2024-03-17T05:01:34;10.37;;;3.40;;
72437;SDS011;60444;43.534;-5.674;2024-03-17T05:04:04;10.40;;;2.97;;
72437;SDS011;60444;43.534;-5.674;2024-03-17T05:06:30;8.45;;;3.15;;
72437;SDS011;60444;43.534;-5.674;2024-03-17T05:08:56;10.13;;;3.28;;
72437;SDS011;60444;43.534;-5.674;2024-03-17T05:11:22;9.45;;;3.05;;
72437;SDS011;60444;43.534;-5.674;2024-03-17T05:13:49;9.23;;;3.40;;
72437;SDS011;60444;43.534;-5.674;2024-03-17T05:16:14;11.68;;;3.53;;
72437;SDS011;60444;43.534;-5.674;2024-03-17T05:18:40;8.60;;;3.17;;
72437;SDS011;60444;43.534;-5.674;2024-03-17T05:21:06;9.40;;;3.07;;
72437;SDS011;60444;43.534;-5.674;2024-03-17T05:23:33;10.45;;;3.20;;
72437;SDS011;60444;43.534;-5.674;2024-03-17T05:25:59;8.65;;;3.33;;
72437;SDS011;60444;43.534;-5.674;2024-03-17T05:28:26;11.07;;;3.30;;
72437;SDS011;60444;43.534;-5.674;2024-03-17T05:30:53;9.10;;;3.67;;
72437;SDS011;60444;43.534;-5.674;2024-03-17T05:33:19;9.90;;;3.15;;
72437;SDS011;60444;43.534;-5.674;2024-03-17T05:35:49;9.48;;;3.42;;
72437;SDS011;60444;43.534;-5.674;2024-03-17T05:38:18;7.77;;;2.70;;
72437;SDS011;60444;43.534;-5.674;2024-03-17T05:40:52;8.10;;;2.75;;
72437;SDS011;60444;43.534;-5.674;2024-03-17T05:43:25;12.85;;;3.30;;
72437;SDS011;60444;43.534;-5.674;2024-03-17T05:45:52;12.10;;;3.47;;
72437;SDS011;60444;43.534;-5.674;2024-03-17T05:48:18;13.52;;;3.70;;
72437;SDS011;60444;43.534;-5.674;2024-03-17T05:50:44;16.27;;;3.77;;
72437;SDS011;60444;43.534;-5.674;2024-03-17T05:53:10;14.65;;;3.47;;
72437;SDS011;60444;43.534;-5.674;2024-03-17T05:55:36;15.52;;;3.53;;
72437;SDS011;60444;43.534;-5.674;2024-03-17T05:58:02;16.57;;;3.60;;
72437;SDS011;60444;43.534;-5.674;2024-03-17T06:00:28;10.75;;;3.10;;
72437;SDS011;60444;43.534;-5.674;2024-03-17T06:02:55;12.02;;;3.13;;
72437;SDS011;60444;43.534;-5.674;2024-03-17T06:05:21;8.85;;;3.72;;
72437;SDS011;60444;43.534;-5.674;2024-03-17T06:07:47;12.80;;;3.20;;
72437;SDS011;60444;43.534;-5.674;2024-03-17T06:10:13;11.55;;;3.47;;
72437;SDS011;60444;43.534;-5.674;2024-03-17T06:12:39;10.30;;;3.57;;
72437;SDS011;60444;43.534;-5.674;2024-03-17T06:15:04;11.57;;;3.25;;
72437;SDS011;60444;43.534;-5.674;2024-03-17T06:17:31;8.57;;;3.20;;
72437;SDS011;60444;43.534;-5.674;2024-03-17T06:19:57;10.32;;;2.78;;
72437;SDS011;60444;43.534;-5.674;2024-03-17T06:22:22;8.60;;;2.90;;
72437;SDS011;60444;43.534;-5.674;2024-03-17T06:24:49;8.98;;;3.10;;
72437;SDS011;60444;43.534;-5.674;2024-03-17T06:27:15;8.95;;;3.03;;
72437;SDS011;60444;43.534;-5.674;2024-03-17T06:29:41;9.35;;;3.05;;
72437;SDS011;60444;43.534;-5.674;2024-03-17T06:32:10;8.40;;;3.20;;
72437;SDS011;60444;43.534;-5.674;2024-03-17T06:34:36;9.40;;;3.30;;
72437;SDS011;60444;43.534;-5.674;2024-03-17T06:37:02;9.13;;;3.35;;
72437;SDS011;60444;43.534;-5.674;2024-03-17T06:39:28;10.37;;;3.27;;
72437;SDS011;60444;43.534;-5.674;2024-03-17T06:41:53;9.77;;;3.50;;
72437;SDS011;60444;43.534;-5.674;2024-03-17T06:44:19;8.27;;;3.10;;
72437;SDS011;60444;43.534;-5.674;2024-03-17T06:46:49;8.20;;;3.33;;
72437;SDS011;60444;43.534;-5.674;2024-03-17T06:49:14;10.50;;;3.37;;
72437;SDS011;60444;43.534;-5.674;2024-03-17T06:51:40;9.70;;;3.10;;
72437;SDS011;60444;43.534;-5.674;2024-03-17T06:54:06;13.80;;;3.50;;
72437;SDS011;60444;43.534;-5.674;2024-03-17T06:56:33;8.70;;;3.30;;
72437;SDS011;60444;43.534;-5.674;2024-03-17T06:59:00;9.20;;;3.38;;
72437;SDS011;60444;43.534;-5.674;2024-03-17T07:01:26;9.67;;;3.70;;
72437;SDS011;60444;43.534;-5.674;2024-03-17T07:03:51;8.43;;;3.20;;
72437;SDS011;60444;43.534;-5.674;2024-03-17T07:06:17;9.30;;;3.47;;
72437;SDS011;60444;43.534;-5.674;2024-03-17T07:08:42;11.40;;;3.40;;
72437;SDS011;60444;43.534;-5.674;2024-03-17T07:11:08;11.83;;;3.27;;
72437;SDS011;60444;43.534;-5.674;2024-03-17T07:13:35;11.55;;;4.10;;
72437;SDS011;60444;43.534;-5.674;2024-03-17T07:16:02;13.77;;;4.28;;
72437;SDS011;60444;43.534;-5.674;2024-03-17T07:18:31;8.03;;;3.07;;
72437;SDS011;60444;43.534;-5.674;2024-03-17T07:21:01;7.93;;;3.03;;
72437;SDS011;60444;43.534;-5.674;2024-03-17T07:23:29;9.93;;;3.05;;
72437;SDS011;60444;43.534;-5.674;2024-03-17T07:25:59;8.02;;;2.95;;
72437;SDS011;60444;43.534;-5.674;2024-03-17T07:28:25;8.73;;;3.65;;
72437;SDS011;60444;43.534;-5.674;2024-03-17T07:30:54;8.07;;;3.23;;
72437;SDS011;60444;43.534;-5.674;2024-03-17T07:33:21;9.60;;;2.65;;
72437;SDS011;60444;43.534;-5.674;2024-03-17T07:35:51;8.45;;;2.60;;
72437;SDS011;60444;43.534;-5.674;2024-03-17T07:38:17;8.55;;;2.95;;
72437;SDS011;60444;43.534;-5.674;2024-03-17T07:40:55;8.07;;;3.20;;
72437;SDS011;60444;43.534;-5.674;2024-03-17T07:43:27;10.38;;;3.78;;
72437;SDS011;60444;43.534;-5.674;2024-03-17T07:46:00;9.30;;;3.20;;
72437;SDS011;60444;43.534;-5.674;2024-03-17T07:48:31;8.85;;;3.10;;
72437;SDS011;60444;43.534;-5.674;2024-03-17T07:51:02;8.88;;;3.67;;
72437;SDS011;60444;43.534;-5.674;2024-03-17T07:53:35;11.13;;;3.57;;
72437;SDS011;60444;43.534;-5.674;2024-03-17T07:56:11;9.27;;;3.22;;
72437;SDS011;60444;43.534;-5.674;2024-03-17T07:58:38;11.00;;;3.60;;
72437;SDS011;60444;43.534;-5.674;2024-03-17T08:01:05;9.43;;;3.10;;
72437;SDS011;60444;43.534;-5.674;2024-03-17T08:03:33;8.18;;;3.28;;
72437;SDS011;60444;43.534;-5.674;2024-03-17T08:06:05;21.47;;;11.87;;
72437;SDS011;60444;43.534;-5.674;2024-03-17T08:08:32;14.07;;;6.22;;
72437;SDS011;60444;43.534;-5.674;2024-03-17T08:10:59;11.00;;;4.10;;
72437;SDS011;60444;43.534;-5.674;2024-03-17T08:13:25;11.30;;;4.72;;
72437;SDS011;60444;43.534;-5.674;2024-03-17T08:15:57;9.77;;;4.03;;
72437;SDS011;60444;43.534;-5.674;2024-03-17T08:18:25;8.70;;;3.50;;
72437;SDS011;60444;43.534;-5.674;2024-03-17T08:20:52;9.15;;;3.72;;
72437;SDS011;60444;43.534;-5.674;2024-03-17T08:23:19;10.23;;;4.10;;
72437;SDS011;60444;43.534;-5.674;2024-03-17T08:25:54;13.43;;;4.90;;
72437;SDS011;60444;43.534;-5.674;2024-03-17T08:28:24;10.93;;;5.05;;
72437;SDS011;60444;43.534;-5.674;2024-03-17T08:30:53;13.53;;;5.27;;
72437;SDS011;60444;43.534;-5.674;2024-03-17T08:33:20;9.13;;;4.75;;
72437;SDS011;60444;43.534;-5.674;2024-03-17T08:35:57;10.13;;;4.57;;
72437;SDS011;60444;43.534;-5.674;2024-03-17T08:38:24;10.85;;;3.70;;
72437;SDS011;60444;43.534;-5.674;2024-03-17T08:40:51;8.52;;;3.65;;
72437;SDS011;60444;43.534;-5.674;2024-03-17T08:43:18;8.13;;;3.33;;
72437;SDS011;60444;43.534;-5.674;2024-03-17T08:45:44;7.32;;;3.20;;
72437;SDS011;60444;43.534;-5.674;2024-03-17T08:48:19;8.55;;;3.47;;
72437;SDS011;60444;43.534;-5.674;2024-03-17T08:50:49;8.43;;;3.43;;
72437;SDS011;60444;43.534;-5.674;2024-03-17T08:53:21;7.40;;;2.78;;
72437;SDS011;60444;43.534;-5.674;2024-03-17T08:55:47;9.05;;;3.22;;
72437;SDS011;60444;43.534;-5.674;2024-03-17T08:58:13;8.40;;;3.27;;
72437;SDS011;60444;43.534;-5.674;2024-03-17T09:00:39;10.52;;;3.50;;
72437;SDS011;60444;43.534;-5.674;2024-03-17T09:03:06;7.78;;;3.53;;
72437;SDS011;60444;43.534;-5.674;2024-03-17T09:05:35;7.82;;;2.83;;
72437;SDS011;60444;43.534;-5.674;2024-03-17T09:08:05;9.45;;;2.88;;
72437;SDS011;60444;43.534;-5.674;2024-03-17T09:10:38;10.53;;;2.70;;
72437;SDS011;60444;43.534;-5.674;2024-03-17T09:13:04;8.88;;;2.97;;
72437;SDS011;60444;43.534;-5.674;2024-03-17T09:15:30;8.07;;;3.15;;
72437;SDS011;60444;43.534;-5.674;2024-03-17T09:17:56;9.03;;;3.00;;
72437;SDS011;60444;43.534;-5.674;2024-03-17T09:20:21;8.80;;;3.00;;
72437;SDS011;60444;43.534;-5.674;2024-03-17T09:22:47;8.38;;;3.10;;
72437;SDS011;60444;43.534;-5.674;2024-03-17T09:25:13;9.87;;;3.10;;
72437;SDS011;60444;43.534;-5.674;2024-03-17T09:27:39;8.75;;;3.05;;
72437;SDS011;60444;43.534;-5.674;2024-03-17T09:30:05;6.60;;;2.50;;
72437;SDS011;60444;43.534;-5.674;2024-03-17T09:32:34;6.80;;;2.63;;
72437;SDS011;60444;43.534;-5.674;2024-03-17T09:35:03;8.93;;;3.10;;
72437;SDS011;60444;43.534;-5.674;2024-03-17T09:37:30;8.32;;;2.92;;
72437;SDS011;60444;43.534;-5.674;2024-03-17T09:39:57;7.78;;;2.70;;
72437;SDS011;60444;43.534;-5.674;2024-03-17T09:42:31;7.45;;;2.92;;
72437;SDS011;60444;43.534;-5.674;2024-03-17T09:44:57;7.50;;;3.10;;
72437;SDS011;60444;43.534;-5.674;2024-03-17T09:47:23;7.60;;;2.87;;
72437;SDS011;60444;43.534;-5.674;2024-03-17T09:49:51;7.43;;;2.70;;
72437;SDS011;60444;43.534;-5.674;2024-03-17T09:52:21;8.83;;;3.60;;
72437;SDS011;60444;43.534;-5.674;2024-03-17T09:57:24;9.23;;;3.13;;
72437;SDS011;60444;43.534;-5.674;2024-03-17T09:59:51;7.35;;;2.80;;
72437;SDS011;60444;43.534;-5.674;2024-03-17T10:02:21;8.43;;;2.92;;
72437;SDS011;60444;43.534;-5.674;2024-03-17T10:04:47;9.67;;;3.10;;
72437;SDS011;60444;43.534;-5.674;2024-03-17T10:07:13;7.78;;;2.97;;
72437;SDS011;60444;43.534;-5.674;2024-03-17T10:09:42;8.85;;;2.70;;
72437;SDS011;60444;43.534;-5.674;2024-03-17T10:12:28;8.43;;;2.80;;
72437;SDS011;60444;43.534;-5.674;2024-03-17T10:14:58;7.57;;;2.80;;
72437;SDS011;60444;43.534;-5.674;2024-03-17T10:17:33;6.10;;;2.07;;
72437;SDS011;60444;43.534;-5.674;2024-03-17T10:20:21;6.13;;;2.20;;
72437;SDS011;60444;43.534;-5.674;2024-03-17T10:23:01;7.70;;;3.05;;
72437;SDS011;60444;43.534;-5.674;2024-03-17T10:25:32;15.68;;;4.60;;
72437;SDS011;60444;43.534;-5.674;2024-03-17T10:27:59;7.57;;;3.58;;
72437;SDS011;60444;43.534;-5.674;2024-03-17T10:30:26;11.03;;;3.60;;
72437;SDS011;60444;43.534;-5.674;2024-03-17T10:32:57;10.38;;;4.00;;
72437;SDS011;60444;43.534;-5.674;2024-03-17T10:35:29;8.77;;;3.75;;
72437;SDS011;60444;43.534;-5.674;2024-03-17T10:37:56;8.57;;;3.42;;
72437;SDS011;60444;43.534;-5.674;2024-03-17T10:40:24;9.50;;;3.20;;
72437;SDS011;60444;43.534;-5.674;2024-03-17T10:42:50;10.93;;;3.27;;
72437;SDS011;60444;43.534;-5.674;2024-03-17T10:45:16;9.40;;;3.28;;
72437;SDS011;60444;43.534;-5.674;2024-03-17T10:47:47;10.57;;;3.75;;
72437;SDS011;60444;43.534;-5.674;2024-03-17T10:50:19;9.48;;;3.42;;
72437;SDS011;60444;43.534;-5.674;2024-03-17T10:52:47;11.97;;;3.73;;
72437;SDS011;60444;43.534;-5.674;2024-03-17T10:57:50;8.10;;;3.22;;
72437;SDS011;60444;43.534;-5.674;2024-03-17T11:00:18;9.32;;;3.10;;
72437;SDS011;60444;43.534;-5.674;2024-03-17T11:02:47;12.68;;;3.47;;
72437;SDS011;60444;43.534;-5.674;2024-03-17T11:05:24;9.50;;;4.30;;
72437;SDS011;60444;43.534;-5.674;2024-03-17T11:07:55;9.55;;;3.08;;
72437;SDS011;60444;43.534;-5.674;2024-03-17T11:10:26;8.20;;;2.78;;
72437;SDS011;60444;43.534;-5.674;2024-03-17T11:12:54;9.88;;;3.10;;
72437;SDS011;60444;43.534;-5.674;2024-03-17T11:17:52;10.93;;;3.37;;
72437;SDS011;60444;43.534;-5.674;2024-03-17T11:20:21;9.88;;;2.72;;
72437;SDS011;60444;43.534;-5.674;2024-03-17T11:22:51;9.88;;;3.10;;
72437;SDS011;60444;43.534;-5.674;2024-03-17T11:27:58;10.07;;;2.47;;
72437;SDS011;60444;43.534;-5.674;2024-03-17T11:41:40;10.10;;;3.17;;
72437;SDS011;60444;43.534;-5.674;2024-03-17T11:44:13;9.03;;;2.47;;
72437;SDS011;60444;43.534;-5.674;2024-03-17T11:46:40;8.25;;;2.42;;
72437;SDS011;60444;43.534;-5.674;2024-03-17T11:49:28;7.95;;;2.78;;
72437;SDS011;60444;43.534;-5.674;2024-03-17T11:52:00;7.95;;;2.30;;
72437;SDS011;60444;43.534;-5.674;2024-03-17T11:54:31;7.88;;;2.60;;
72437;SDS011;60444;43.534;-5.674;2024-03-17T11:59:27;7.65;;;2.20;;
72437;SDS011;60444;43.534;-5.674;2024-03-17T12:01:54;7.15;;;2.15;;
72437;SDS011;60444;43.534;-5.674;2024-03-17T12:04:20;7.70;;;2.40;;
72437;SDS011;60444;43.534;-5.674;2024-03-17T12:06:47;7.25;;;1.77;;
72437;SDS011;60444;43.534;-5.674;2024-03-17T12:09:23;7.75;;;2.53;;
72437;SDS011;60444;43.534;-5.674;2024-03-17T12:12:00;6.80;;;2.20;;
72437;SDS011;60444;43.534;-5.674;2024-03-17T12:14:27;7.30;;;2.72;;
72437;SDS011;60444;43.534;-5.674;2024-03-17T12:17:00;7.70;;;2.40;;
72437;SDS011;60444;43.534;-5.674;2024-03-17T12:19:28;6.47;;;2.17;;
72437;SDS011;60444;43.534;-5.674;2024-03-17T12:21:57;6.60;;;2.67;;
72437;SDS011;60444;43.534;-5.674;2024-03-17T12:24:26;7.28;;;2.53;;
72437;SDS011;60444;43.534;-5.674;2024-03-17T12:26:54;6.80;;;2.13;;
72437;SDS011;60444;43.534;-5.674;2024-03-17T12:29:37;6.97;;;2.85;;
72437;SDS011;60444;43.534;-5.674;2024-03-17T12:32:11;6.80;;;2.15;;
72437;SDS011;60444;43.534;-5.674;2024-03-17T12:34:41;7.63;;;2.10;;
72437;SDS011;60444;43.534;-5.674;2024-03-17T12:37:08;6.78;;;2.38;;
72437;SDS011;60444;43.534;-5.674;2024-03-17T12:39:47;8.03;;;2.20;;
72437;SDS011;60444;43.534;-5.674;2024-03-17T12:42:14;6.25;;;2.30;;
72437;SDS011;60444;43.534;-5.674;2024-03-17T12:44:50;10.77;;;2.45;;
72437;SDS011;60444;43.534;-5.674;2024-03-17T12:47:19;8.38;;;2.42;;
72437;SDS011;60444;43.534;-5.674;2024-03-17T12:49:46;7.60;;;2.85;;
72437;SDS011;60444;43.534;-5.674;2024-03-17T12:54:58;7.78;;;2.40;;
72437;SDS011;60444;43.534;-5.674;2024-03-17T12:57:47;10.73;;;2.90;;
72437;SDS011;60444;43.534;-5.674;2024-03-17T13:00:33;9.63;;;2.33;;
72437;SDS011;60444;43.534;-5.674;2024-03-17T13:02:59;7.25;;;2.80;;
72437;SDS011;60444;43.534;-5.674;2024-03-17T13:05:29;9.13;;;2.90;;
72437;SDS011;60444;43.534;-5.674;2024-03-17T13:07:58;9.50;;;2.40;;
72437;SDS011;60444;43.534;-5.674;2024-03-17T13:10:24;8.43;;;2.40;;
72437;SDS011;60444;43.534;-5.674;2024-03-17T13:13:00;8.98;;;2.60;;
72437;SDS011;60444;43.534;-5.674;2024-03-17T13:15:27;10.13;;;2.60;;
72437;SDS011;60444;43.534;-5.674;2024-03-17T13:17:56;6.70;;;2.43;;
72437;SDS011;60444;43.534;-5.674;2024-03-17T13:20:23;8.27;;;2.28;;
72437;SDS011;60444;43.534;-5.674;2024-03-17T13:22:49;7.13;;;2.38;;
72437;SDS011;60444;43.534;-5.674;2024-03-17T13:25:15;8.33;;;2.80;;
72437;SDS011;60444;43.534;-5.674;2024-03-17T13:27:45;7.95;;;2.47;;
72437;SDS011;60444;43.534;-5.674;2024-03-17T13:30:11;9.07;;;2.97;;
72437;SDS011;60444;43.534;-5.674;2024-03-17T13:32:38;10.75;;;3.05;;
72437;SDS011;60444;43.534;-5.674;2024-03-17T13:35:07;11.03;;;2.63;;
72437;SDS011;60444;43.534;-5.674;2024-03-17T13:37:40;9.45;;;2.72;;
72437;SDS011;60444;43.534;-5.674;2024-03-17T13:40:05;7.77;;;2.73;;
72437;SDS011;60444;43.534;-5.674;2024-03-17T13:42:32;10.18;;;2.75;;
72437;SDS011;60444;43.534;-5.674;2024-03-17T13:44:57;7.75;;;2.25;;
72437;SDS011;60444;43.534;-5.674;2024-03-17T13:47:23;7.33;;;2.50;;
72437;SDS011;60444;43.534;-5.674;2024-03-17T13:49:48;7.43;;;2.60;;
72437;SDS011;60444;43.534;-5.674;2024-03-17T13:52:14;10.85;;;2.83;;
72437;SDS011;60444;43.534;-5.674;2024-03-17T13:54:39;9.20;;;2.70;;
72437;SDS011;60444;43.534;-5.674;2024-03-17T13:57:05;10.37;;;3.57;;
72437;SDS011;60444;43.534;-5.674;2024-03-17T13:59:31;8.67;;;2.33;;
72437;SDS011;60444;43.534;-5.674;2024-03-17T14:01:57;9.18;;;2.72;;
72437;SDS011;60444;43.534;-5.674;2024-03-17T14:04:25;7.00;;;2.30;;
72437;SDS011;60444;43.534;-5.674;2024-03-17T14:06:51;7.50;;;2.63;;
72437;SDS011;60444;43.534;-5.674;2024-03-17T14:09:16;9.00;;;2.60;;
72437;SDS011;60444;43.534;-5.674;2024-03-17T14:11:45;11.88;;;3.00;;
72437;SDS011;60444;43.534;-5.674;2024-03-17T14:14:13;10.97;;;2.93;;
72437;SDS011;60444;43.534;-5.674;2024-03-17T14:16:39;8.52;;;2.20;;
72437;SDS011;60444;43.534;-5.674;2024-03-17T14:19:05;9.52;;;3.08;;
72437;SDS011;60444;43.534;-5.674;2024-03-17T14:21:31;8.47;;;2.30;;
72437;SDS011;60444;43.534;-5.674;2024-03-17T14:23:57;9.37;;;2.13;;
72437;SDS011;60444;43.534;-5.674;2024-03-17T14:26:22;9.47;;;2.27;;
72437;SDS011;60444;43.534;-5.674;2024-03-17T14:28:48;9.23;;;2.05;;
72437;SDS011;60444;43.534;-5.674;2024-03-17T14:31:19;8.65;;;2.55;;
72437;SDS011;60444;43.534;-5.674;2024-03-17T14:33:44;7.43;;;2.43;;
72437;SDS011;60444;43.534;-5.674;2024-03-17T14:36:10;10.20;;;2.03;;
72437;SDS011;60444;43.534;-5.674;2024-03-17T14:38:36;8.52;;;1.98;;
72437;SDS011;60444;43.534;-5.674;2024-03-17T14:41:01;9.00;;;1.90;;
72437;SDS011;60444;43.534;-5.674;2024-03-17T14:43:29;10.13;;;2.60;;
72437;SDS011;60444;43.534;-5.674;2024-03-17T14:45:55;7.68;;;2.03;;
72437;SDS011;60444;43.534;-5.674;2024-03-17T14:48:21;9.63;;;2.40;;
72437;SDS011;60444;43.534;-5.674;2024-03-17T14:50:46;9.90;;;2.00;;
72437;SDS011;60444;43.534;-5.674;2024-03-17T14:53:12;10.20;;;2.50;;
72437;SDS011;60444;43.534;-5.674;2024-03-17T14:55:38;8.57;;;2.22;;
72437;SDS011;60444;43.534;-5.674;2024-03-17T14:58:03;7.33;;;2.73;;
72437;SDS011;60444;43.534;-5.674;2024-03-17T15:00:31;9.77;;;2.42;;
72437;SDS011;60444;43.534;-5.674;2024-03-17T15:02:57;7.80;;;1.90;;
72437;SDS011;60444;43.534;-5.674;2024-03-17T15:05:22;6.88;;;2.40;;